sensor_id;sensor_type;location;lat;lon;timestamp;pressure;altitude;pressure_sealevel;temperature;humidity
61109;BME280;46995;55.740;37.402;2023-03-20T00:00:27;99989.03;;;-1.59;70.02
61109;BME280;46995;55.740;37.402;2023-03-20T00:02:53;99985.84;;;-1.67;69.54
61109;BME280;46995;55.740;37.402;2023-03-20T00:05:21;99988.34;;;-1.66;70.26
61109;BME280;46995;55.740;37.402;2023-03-20T00:07:48;100012.06;;;-1.50;69.70
61109;BME280;46995;55.740;37.402;2023-03-20T00:10:18;99998.44;;;-1.57;70.15
61109;BME280;46995;55.740;37.402;2023-03-20T00:12:46;100001.13;;;-1.60;70.11
61109;BME280;46995;55.740;37.402;2023-03-20T00:15:28;100023.09;;;-1.44;70.65
61109;BME280;46995;55.740;37.402;2023-03-20T00:17:57;99986.66;;;-1.67;70.12
61109;BME280;46995;55.740;37.402;2023-03-20T00:20:23;100039.16;;;-1.33;69.95
61109;BME280;46995;55.740;37.402;2023-03-20T00:22:49;99993.22;;;-1.55;69.80
61109;BME280;46995;55.740;37.402;2023-03-20T00:25:20;100022.13;;;-1.41;70.22
61109;BME280;46995;55.740;37.402;2023-03-20T00:27:47;100034.88;;;-1.34;70.19
61109;BME280;46995;55.740;37.402;2023-03-20T00:30:26;100028.84;;;-1.34;70.22
61109;BME280;46995;55.740;37.402;2023-03-20T00:32:54;99954.28;;;-1.82;70.10
61109;BME280;46995;55.740;37.402;2023-03-20T00:37:50;99915.44;;;-2.09;70.46
61109;BME280;46995;55.740;37.402;2023-03-20T00:40:16;100017.78;;;-1.39;70.18
61109;BME280;46995;55.740;37.402;2023-03-20T00:42:44;99982.56;;;-1.74;70.49
61109;BME280;46995;55.740;37.402;2023-03-20T00:45:17;100024.88;;;-1.46;70.69
61109;BME280;46995;55.740;37.402;2023-03-20T00:47:44;100006.44;;;-1.64;69.84
61109;BME280;46995;55.740;37.402;2023-03-20T00:52:41;99954.41;;;-1.85;70.66
61109;BME280;46995;55.740;37.402;2023-03-20T00:55:07;99994.31;;;-1.62;70.36
61109;BME280;46995;55.740;37.402;2023-03-20T00:57:39;99968.84;;;-1.78;71.05
61109;BME280;46995;55.740;37.402;2023-03-20T01:02:39;99956.34;;;-1.93;70.64
61109;BME280;46995;55.740;37.402;2023-03-20T01:05:05;99964.94;;;-1.91;70.88
61109;BME280;46995;55.740;37.402;2023-03-20T01:07:31;99964.94;;;-1.91;71.01
61109;BME280;46995;55.740;37.402;2023-03-20T01:09:56;99965.09;;;-1.97;71.02
61109;BME280;46995;55.740;37.402;2023-03-20T01:12:22;99981.38;;;-1.93;71.26
61109;BME280;46995;55.740;37.402;2023-03-20T01:14:52;100019.50;;;-1.67;71.74
61109;BME280;46995;55.740;37.402;2023-03-20T01:17:21;99975.44;;;-1.97;71.22
61109;BME280;46995;55.740;37.402;2023-03-20T01:19:47;99926.16;;;-2.23;71.65
61109;BME280;46995;55.740;37.402;2023-03-20T01:22:14;99979.81;;;-1.99;71.71
61109;BME280;46995;55.740;37.402;2023-03-20T01:24:42;100013.78;;;-1.80;71.96
61109;BME280;46995;55.740;37.402;2023-03-20T01:27:18;99973.13;;;-2.06;72.35
61109;BME280;46995;55.740;37.402;2023-03-20T01:29:45;99965.53;;;-2.12;71.85
61109;BME280;46995;55.740;37.402;2023-03-20T01:32:14;99968.97;;;-2.11;72.47
61109;BME280;46995;55.740;37.402;2023-03-20T01:34:44;99952.84;;;-2.21;72.06
61109;BME280;46995;55.740;37.402;2023-03-20T01:37:16;99959.72;;;-2.20;72.73
61109;BME280;46995;55.740;37.402;2023-03-20T01:39:43;99997.75;;;-1.93;72.28
61109;BME280;46995;55.740;37.402;2023-03-20T01:42:13;99969.00;;;-2.13;72.67
61109;BME280;46995;55.740;37.402;2023-03-20T01:44:41;99994.38;;;-1.95;72.00
61109;BME280;46995;55.740;37.402;2023-03-20T01:47:16;99995.25;;;-1.96;72.66
61109;BME280;46995;55.740;37.402;2023-03-20T01:53:07;99920.69;;;-2.43;72.29
61109;BME280;46995;55.740;37.402;2023-03-20T01:55:40;99952.03;;;-2.23;72.70
61109;BME280;46995;55.740;37.402;2023-03-20T01:58:16;99960.38;;;-2.14;72.92
61109;BME280;46995;55.740;37.402;2023-03-20T02:00:45;99959.50;;;-2.13;72.82
61109;BME280;46995;55.740;37.402;2023-03-20T02:03:15;99946.78;;;-2.20;72.72
61109;BME280;46995;55.740;37.402;2023-03-20T02:06:01;99909.47;;;-2.42;72.78
61109;BME280;46995;55.740;37.402;2023-03-20T02:08:51;99978.06;;;-1.98;72.82
61109;BME280;46995;55.740;37.402;2023-03-20T02:11:19;99945.88;;;-2.19;72.84
61109;BME280;46995;55.740;37.402;2023-03-20T02:13:50;99937.28;;;-2.20;72.72
61109;BME280;46995;55.740;37.402;2023-03-20T02:16:18;99933.88;;;-2.20;72.74
61109;BME280;46995;55.740;37.402;2023-03-20T02:18:56;99967.78;;;-2.00;72.69
61109;BME280;46995;55.740;37.402;2023-03-20T02:43:22;99956.56;;;-2.00;73.28
61109;BME280;46995;55.740;37.402;2023-03-20T02:48:45;99954.84;;;-2.00;72.81
61109;BME280;46995;55.740;37.402;2023-03-20T03:02:28;99889.88;;;-2.20;72.36
61109;BME280;46995;55.740;37.402;2023-03-20T03:05:03;99906.78;;;-2.08;71.83
61109;BME280;46995;55.740;37.402;2023-03-20T03:07:32;99907.41;;;-2.00;72.13
61109;BME280;46995;55.740;37.402;2023-03-20T03:12:31;99943.78;;;-1.76;72.19
61109;BME280;46995;55.740;37.402;2023-03-20T03:15:03;99936.88;;;-1.77;71.89
61109;BME280;46995;55.740;37.402;2023-03-20T03:17:33;99895.31;;;-2.00;71.45
61109;BME280;46995;55.740;37.402;2023-03-20T03:20:04;99875.50;;;-2.01;70.47
61109;BME280;46995;55.740;37.402;2023-03-20T03:22:35;99887.09;;;-1.85;71.08
61109;BME280;46995;55.740;37.402;2023-03-20T03:25:01;99864.69;;;-1.86;70.82
61109;BME280;46995;55.740;37.402;2023-03-20T03:27:36;99882.13;;;-1.63;70.89
61109;BME280;46995;55.740;37.402;2023-03-20T03:30:12;99898.22;;;-1.53;70.64
61109;BME280;46995;55.740;37.402;2023-03-20T03:32:56;99859.16;;;-1.74;70.17
61109;BME280;46995;55.740;37.402;2023-03-20T03:35:25;99869.25;;;-1.66;70.26
61109;BME280;46995;55.740;37.402;2023-03-20T03:37:59;99920.78;;;-1.31;70.39
61109;BME280;46995;55.740;37.402;2023-03-20T03:43:17;99915.59;;;-1.31;70.49
61109;BME280;46995;55.740;37.402;2023-03-20T03:45:51;99837.88;;;-1.83;70.41
61109;BME280;46995;55.740;37.402;2023-03-20T03:48:46;99871.84;;;-1.66;70.69
61109;BME280;46995;55.740;37.402;2023-03-20T03:51:18;99840.56;;;-1.86;70.85
61109;BME280;46995;55.740;37.402;2023-03-20T03:54:03;99892.00;;;-1.48;70.94
61109;BME280;46995;55.740;37.402;2023-03-20T03:56:34;99893.03;;;-1.53;70.58
61109;BME280;46995;55.740;37.402;2023-03-20T03:59:10;99834.69;;;-1.91;71.05
61109;BME280;46995;55.740;37.402;2023-03-20T04:01:39;99842.97;;;-1.80;70.78
61109;BME280;46995;55.740;37.402;2023-03-20T04:04:11;99911.75;;;-1.45;71.34
61109;BME280;46995;55.740;37.402;2023-03-20T04:06:39;99885.41;;;-1.58;70.86
61109;BME280;46995;55.740;37.402;2023-03-20T04:09:08;99856.66;;;-1.77;70.79
61109;BME280;46995;55.740;37.402;2023-03-20T04:11:34;99882.75;;;-1.56;71.01
61109;BME280;46995;55.740;37.402;2023-03-20T04:14:01;99855.72;;;-1.74;70.76
61109;BME280;46995;55.740;37.402;2023-03-20T04:16:27;99791.19;;;-2.08;70.50
61109;BME280;46995;55.740;37.402;2023-03-20T04:18:56;99811.09;;;-1.82;70.65
61109;BME280;46995;55.740;37.402;2023-03-20T04:21:23;99871.03;;;-1.40;70.16
61109;BME280;46995;55.740;37.402;2023-03-20T04:23:50;99859.88;;;-1.42;69.87
61109;BME280;46995;55.740;37.402;2023-03-20T04:26:19;99835.03;;;-1.48;69.72
61109;BME280;46995;55.740;37.402;2023-03-20T04:28:46;99829.69;;;-1.43;69.79
61109;BME280;46995;55.740;37.402;2023-03-20T04:31:58;99785.38;;;-1.60;69.62
61109;BME280;46995;55.740;37.402;2023-03-20T04:35:02;99856.00;;;-1.04;69.32
61109;BME280;46995;55.740;37.402;2023-03-20T04:37:45;99861.50;;;-0.89;69.10
61109;BME280;46995;55.740;37.402;2023-03-20T04:40:11;99884.78;;;-0.62;69.00
61109;BME280;46995;55.740;37.402;2023-03-20T04:42:41;99810.69;;;-0.93;68.53
61109;BME280;46995;55.740;37.402;2023-03-20T04:45:10;99758.72;;;-1.13;67.23
61109;BME280;46995;55.740;37.402;2023-03-20T04:47:38;99860.63;;;-0.39;66.67
61109;BME280;46995;55.740;37.402;2023-03-20T04:50:06;99820.53;;;-0.54;66.14
61109;BME280;46995;55.740;37.402;2023-03-20T04:52:32;99888.13;;;-0.11;67.09
61109;BME280;46995;55.740;37.402;2023-03-20T04:54:57;99852.59;;;-0.32;65.71
61109;BME280;46995;55.740;37.402;2023-03-20T04:57:23;99889.81;;;-0.10;66.00
61109;BME280;46995;55.740;37.402;2023-03-20T04:59:50;99835.50;;;-0.37;64.64
61109;BME280;46995;55.740;37.402;2023-03-20T05:02:19;99850.66;;;-0.27;63.21
61109;BME280;46995;55.740;37.402;2023-03-20T05:04:45;99891.50;;;-0.09;62.94
61109;BME280;46995;55.740;37.402;2023-03-20T05:07:14;99868.34;;;-0.15;62.61
61109;BME280;46995;55.740;37.402;2023-03-20T05:10:01;99836.53;;;-0.20;61.72
61109;BME280;46995;55.740;37.402;2023-03-20T05:12:30;99814.38;;;-0.28;62.25
61109;BME280;46995;55.740;37.402;2023-03-20T05:15:23;99865.56;;;0.13;61.86
61109;BME280;46995;55.740;37.402;2023-03-20T05:18:14;99856.41;;;0.05;60.83
61109;BME280;46995;55.740;37.402;2023-03-20T05:20:57;99807.81;;;-0.15;61.25
61109;BME280;46995;55.740;37.402;2023-03-20T05:23:49;99852.56;;;0.15;60.69
61109;BME280;46995;55.740;37.402;2023-03-20T05:26:30;99898.72;;;0.52;59.75
61109;BME280;46995;55.740;37.402;2023-03-20T05:29:02;99892.28;;;0.60;59.35
61109;BME280;46995;55.740;37.402;2023-03-20T05:32:04;99883.47;;;0.64;58.58
61109;BME280;46995;55.740;37.402;2023-03-20T05:34:38;99838.16;;;0.50;58.45
61109;BME280;46995;55.740;37.402;2023-03-20T05:37:10;99892.59;;;0.95;57.77
61109;BME280;46995;55.740;37.402;2023-03-20T05:39:52;99886.22;;;1.03;57.78
61109;BME280;46995;55.740;37.402;2023-03-20T05:42:49;99856.34;;;0.92;57.06
61109;BME280;46995;55.740;37.402;2023-03-20T05:45:19;99878.66;;;1.17;56.50
61109;BME280;46995;55.740;37.402;2023-03-20T05:48:09;99854.66;;;1.11;55.74
61109;BME280;46995;55.740;37.402;2023-03-20T05:50:38;99855.31;;;1.16;56.24
61109;BME280;46995;55.740;37.402;2023-03-20T05:53:23;99846.50;;;1.20;55.90
61109;BME280;46995;55.740;37.402;2023-03-20T05:56:01;99905.00;;;1.50;55.58
61109;BME280;46995;55.740;37.402;2023-03-20T05:58:36;99863.75;;;1.21;55.60
61109;BME280;46995;55.740;37.402;2023-03-20T06:01:20;99869.94;;;1.18;55.26
61109;BME280;46995;55.740;37.402;2023-03-20T06:03:52;99882.72;;;1.24;55.47
61109;BME280;46995;55.740;37.402;2023-03-20T06:06:38;99881.22;;;1.19;55.48
61109;BME280;46995;55.740;37.402;2023-03-20T06:09:04;99889.53;;;1.27;55.61
61109;BME280;46995;55.740;37.402;2023-03-20T06:11:30;99894.47;;;1.33;55.52
61109;BME280;46995;55.740;37.402;2023-03-20T06:13:57;99899.16;;;1.45;55.04
61109;BME280;46995;55.740;37.402;2023-03-20T06:16:33;99843.25;;;1.15;55.30
61109;BME280;46995;55.740;37.402;2023-03-20T06:19:00;99836.84;;;1.22;55.09
61109;BME280;46995;55.740;37.402;2023-03-20T06:21:25;99884.56;;;1.61;54.21
61109;BME280;46995;55.740;37.402;2023-03-20T06:23:54;99847.09;;;1.45;54.48
61109;BME280;46995;55.740;37.402;2023-03-20T06:26:22;99880.50;;;1.75;54.03
61109;BME280;46995;55.740;37.402;2023-03-20T06:28:58;99850.09;;;1.75;53.60
61109;BME280;46995;55.740;37.402;2023-03-20T06:31:24;99858.06;;;1.91;53.48
61109;BME280;46995;55.740;37.402;2023-03-20T06:33:52;99862.44;;;2.09;53.33
61109;BME280;46995;55.740;37.402;2023-03-20T06:36:18;99863.25;;;2.28;52.88
61109;BME280;46995;55.740;37.402;2023-03-20T06:38:49;99865.44;;;2.37;52.69
61109;BME280;46995;55.740;37.402;2023-03-20T06:41:16;99821.28;;;2.34;52.06
61109;BME280;46995;55.740;37.402;2023-03-20T06:43:43;99863.88;;;2.69;51.75
61109;BME280;46995;55.740;37.402;2023-03-20T06:46:10;99772.66;;;2.16;51.70
61109;BME280;46995;55.740;37.402;2023-03-20T06:48:39;99857.59;;;2.73;52.13
61109;BME280;46995;55.740;37.402;2023-03-20T06:51:06;99878.41;;;2.92;51.99
61109;BME280;46995;55.740;37.402;2023-03-20T06:53:37;99828.53;;;2.64;51.92
61109;BME280;46995;55.740;37.402;2023-03-20T06:56:10;99872.91;;;2.98;52.34
61109;BME280;46995;55.740;37.402;2023-03-20T06:58:38;99876.13;;;3.03;52.40
61109;BME280;46995;55.740;37.402;2023-03-20T07:01:12;99827.88;;;2.77;51.97
61109;BME280;46995;55.740;37.402;2023-03-20T07:03:40;99860.47;;;3.03;52.36
61109;BME280;46995;55.740;37.402;2023-03-20T07:06:07;99861.38;;;3.19;53.03
61109;BME280;46995;55.740;37.402;2023-03-20T07:08:35;99843.97;;;3.03;51.96
61109;BME280;46995;55.740;37.402;2023-03-20T07:11:02;99851.56;;;3.07;51.85
61109;BME280;46995;55.740;37.402;2023-03-20T07:13:30;99862.84;;;3.08;51.72
61109;BME280;46995;55.740;37.402;2023-03-20T07:16:01;99848.34;;;3.02;51.53
61109;BME280;46995;55.740;37.402;2023-03-20T07:18:29;99813.03;;;2.78;51.28
61109;BME280;46995;55.740;37.402;2023-03-20T07:21:01;99852.66;;;3.03;51.04
61109;BME280;46995;55.740;37.402;2023-03-20T07:23:29;99816.72;;;2.74;51.02
61109;BME280;46995;55.740;37.402;2023-03-20T07:25:57;99828.38;;;2.84;51.19
61109;BME280;46995;55.740;37.402;2023-03-20T07:28:24;99859.00;;;2.97;51.30
61109;BME280;46995;55.740;37.402;2023-03-20T07:31:00;99808.75;;;2.77;52.13
61109;BME280;46995;55.740;37.402;2023-03-20T07:33:25;99822.88;;;2.90;51.55
61109;BME280;46995;55.740;37.402;2023-03-20T07:35:54;99833.44;;;3.04;51.45
61109;BME280;46995;55.740;37.402;2023-03-20T07:38:23;99826.47;;;3.05;51.45
61109;BME280;46995;55.740;37.402;2023-03-20T07:41:02;99803.53;;;2.94;51.94
61109;BME280;46995;55.740;37.402;2023-03-20T07:43:29;99812.88;;;3.15;51.02
61109;BME280;46995;55.740;37.402;2023-03-20T07:46:01;99838.78;;;3.35;50.29
61109;BME280;46995;55.740;37.402;2023-03-20T07:48:28;99843.53;;;3.45;49.88
61109;BME280;46995;55.740;37.402;2023-03-20T07:50:54;99799.03;;;3.30;49.68
61109;BME280;46995;55.740;37.402;2023-03-20T07:53:20;99830.59;;;3.59;49.67
61109;BME280;46995;55.740;37.402;2023-03-20T07:55:47;99840.50;;;3.85;51.58
61109;BME280;46995;55.740;37.402;2023-03-20T07:58:14;99823.00;;;3.87;48.88
61109;BME280;46995;55.740;37.402;2023-03-20T08:00:40;99830.91;;;4.01;48.27
61109;BME280;46995;55.740;37.402;2023-03-20T08:03:06;99802.75;;;3.91;47.85
61109;BME280;46995;55.740;37.402;2023-03-20T08:05:32;99799.91;;;3.95;47.46
61109;BME280;46995;55.740;37.402;2023-03-20T08:07:58;99812.19;;;4.09;46.54
61109;BME280;46995;55.740;37.402;2023-03-20T08:10:24;99806.88;;;4.10;46.14
61109;BME280;46995;55.740;37.402;2023-03-20T08:12:50;99786.31;;;4.04;45.77
61109;BME280;46995;55.740;37.402;2023-03-20T08:15:16;99815.38;;;4.30;45.60
61109;BME280;46995;55.740;37.402;2023-03-20T08:17:43;99814.72;;;4.42;45.02
61109;BME280;46995;55.740;37.402;2023-03-20T08:20:10;99785.56;;;4.34;44.10
61109;BME280;46995;55.740;37.402;2023-03-20T08:22:36;99792.09;;;4.41;44.22
61109;BME280;46995;55.740;37.402;2023-03-20T08:25:05;99809.09;;;4.63;43.65
61109;BME280;46995;55.740;37.402;2023-03-20T08:27:34;99808.50;;;4.74;43.87
61109;BME280;46995;55.740;37.402;2023-03-20T08:30:00;99768.09;;;4.64;43.73
61109;BME280;46995;55.740;37.402;2023-03-20T08:32:27;99764.16;;;4.71;42.97
61109;BME280;46995;55.740;37.402;2023-03-20T08:34:56;99786.66;;;4.89;42.67
61109;BME280;46995;55.740;37.402;2023-03-20T08:37:22;99779.94;;;4.85;42.24
61109;BME280;46995;55.740;37.402;2023-03-20T08:39:48;99805.34;;;4.97;43.11
61109;BME280;46995;55.740;37.402;2023-03-20T08:42:14;99745.91;;;4.55;42.35
61109;BME280;46995;55.740;37.402;2023-03-20T08:44:40;99774.13;;;4.80;42.38
61109;BME280;46995;55.740;37.402;2023-03-20T08:47:06;99789.28;;;4.89;42.28
61109;BME280;46995;55.740;37.402;2023-03-20T08:49:33;99793.38;;;4.79;41.91
61109;BME280;46995;55.740;37.402;2023-03-20T08:52:00;99770.63;;;4.65;41.80
61109;BME280;46995;55.740;37.402;2023-03-20T08:54:29;99798.41;;;4.82;40.73
61109;BME280;46995;55.740;37.402;2023-03-20T08:56:55;99753.59;;;4.58;41.32
61109;BME280;46995;55.740;37.402;2023-03-20T08:59:21;99738.72;;;4.45;41.71
61109;BME280;46995;55.740;37.402;2023-03-20T09:01:47;99762.88;;;4.64;40.89
61109;BME280;46995;55.740;37.402;2023-03-20T09:04:13;99757.78;;;4.61;40.22
61109;BME280;46995;55.740;37.402;2023-03-20T09:06:39;99758.63;;;4.61;40.60
61109;BME280;46995;55.740;37.402;2023-03-20T09:09:06;99786.53;;;4.77;40.50
61109;BME280;46995;55.740;37.402;2023-03-20T09:11:33;99778.56;;;4.64;39.91
61109;BME280;46995;55.740;37.402;2023-03-20T09:13:59;99786.78;;;4.72;40.37
61109;BME280;46995;55.740;37.402;2023-03-20T09:16:25;99743.75;;;4.48;40.06
61109;BME280;46995;55.740;37.402;2023-03-20T09:18:51;99771.88;;;4.74;39.99
61109;BME280;46995;55.740;37.402;2023-03-20T09:21:17;99764.00;;;4.74;40.93
61109;BME280;46995;55.740;37.402;2023-03-20T09:23:43;99719.53;;;4.60;40.11
61109;BME280;46995;55.740;37.402;2023-03-20T09:26:09;99732.78;;;4.71;39.31
61109;BME280;46995;55.740;37.402;2023-03-20T09:28:35;99723.28;;;4.84;39.68
61109;BME280;46995;55.740;37.402;2023-03-20T09:31:01;99709.38;;;4.84;38.70
61109;BME280;46995;55.740;37.402;2023-03-20T09:33:27;99775.13;;;5.36;39.27
61109;BME280;46995;55.740;37.402;2023-03-20T09:35:53;99768.59;;;5.43;38.32
61109;BME280;46995;55.740;37.402;2023-03-20T09:38:21;99740.34;;;5.34;38.00
61109;BME280;46995;55.740;37.402;2023-03-20T09:40:51;99757.75;;;5.49;38.45
61109;BME280;46995;55.740;37.402;2023-03-20T09:43:50;99734.41;;;5.44;38.89
61109;BME280;46995;55.740;37.402;2023-03-20T09:52:17;99739.25;;;5.79;39.50
61109;BME280;46995;55.740;37.402;2023-03-20T09:54:49;99732.69;;;5.86;39.56
61109;BME280;46995;55.740;37.402;2023-03-20T09:57:21;99725.84;;;5.83;39.34
61109;BME280;46995;55.740;37.402;2023-03-20T09:59:57;99723.44;;;5.94;38.85
61109;BME280;46995;55.740;37.402;2023-03-20T10:02:43;99732.69;;;6.00;39.13
61109;BME280;46995;55.740;37.402;2023-03-20T10:07:43;99713.56;;;5.98;39.96
61109;BME280;46995;55.740;37.402;2023-03-20T10:10:12;99724.13;;;6.11;39.59
61109;BME280;46995;55.740;37.402;2023-03-20T10:13:01;99718.66;;;6.14;40.79
61109;BME280;46995;55.740;37.402;2023-03-20T10:16:05;99716.41;;;6.22;40.52
61109;BME280;46995;55.740;37.402;2023-03-20T10:18:39;99714.31;;;6.27;39.62
61109;BME280;46995;55.740;37.402;2023-03-20T10:21:36;99710.75;;;6.28;40.04
61109;BME280;46995;55.740;37.402;2023-03-20T10:24:05;99717.88;;;6.26;40.38
61109;BME280;46995;55.740;37.402;2023-03-20T10:26:34;99685.72;;;6.10;40.00
61109;BME280;46995;55.740;37.402;2023-03-20T10:29:06;99694.88;;;6.17;39.33
61109;BME280;46995;55.740;37.402;2023-03-20T10:31:39;99709.25;;;6.24;40.13
61109;BME280;46995;55.740;37.402;2023-03-20T10:39:27;99696.06;;;6.25;38.90
61109;BME280;46995;55.740;37.402;2023-03-20T10:41:59;99679.69;;;6.22;38.89
61109;BME280;46995;55.740;37.402;2023-03-20T10:44:31;99675.16;;;6.24;38.82
61109;BME280;46995;55.740;37.402;2023-03-20T10:47:00;99662.19;;;6.22;38.87
61109;BME280;46995;55.740;37.402;2023-03-20T10:49:43;99679.00;;;6.45;39.19
61109;BME280;46995;55.740;37.402;2023-03-20T10:52:24;99674.09;;;6.53;39.66
61109;BME280;46995;55.740;37.402;2023-03-20T10:55:06;99679.75;;;6.60;39.38
61109;BME280;46995;55.740;37.402;2023-03-20T10:57:37;99651.81;;;6.46;39.69
61109;BME280;46995;55.740;37.402;2023-03-20T11:00:13;99677.56;;;6.66;39.87
61109;BME280;46995;55.740;37.402;2023-03-20T11:02:45;99670.97;;;6.73;40.23
61109;BME280;46995;55.740;37.402;2023-03-20T11:05:35;99673.03;;;6.81;41.06
61109;BME280;46995;55.740;37.402;2023-03-20T11:08:08;99659.59;;;6.86;40.25
61109;BME280;46995;55.740;37.402;2023-03-20T11:10:37;99652.47;;;6.88;40.26
61109;BME280;46995;55.740;37.402;2023-03-20T11:13:26;99662.56;;;6.94;41.03
61109;BME280;46995;55.740;37.402;2023-03-20T11:15:55;99631.78;;;6.83;40.96
61109;BME280;46995;55.740;37.402;2023-03-20T11:18:24;99653.94;;;7.04;40.90
61109;BME280;46995;55.740;37.402;2023-03-20T11:20:55;99633.97;;;7.02;41.02
61109;BME280;46995;55.740;37.402;2023-03-20T11:23:27;99647.00;;;7.16;41.24
61109;BME280;46995;55.740;37.402;2023-03-20T11:26:03;99655.25;;;7.22;40.53
61109;BME280;46995;55.740;37.402;2023-03-20T11:33:44;99643.78;;;7.36;40.72
61109;BME280;46995;55.740;37.402;2023-03-20T11:36:22;99628.75;;;7.38;40.59
61109;BME280;46995;55.740;37.402;2023-03-20T11:38:51;99626.13;;;7.38;41.20
61109;BME280;46995;55.740;37.402;2023-03-20T11:41:25;99621.38;;;7.43;40.32
61109;BME280;46995;55.740;37.402;2023-03-20T11:43:52;99616.00;;;7.45;40.60
61109;BME280;46995;55.740;37.402;2023-03-20T11:46:21;99605.94;;;7.39;40.77
61109;BME280;46995;55.740;37.402;2023-03-20T11:49:02;99596.91;;;7.43;41.20
61109;BME280;46995;55.740;37.402;2023-03-20T11:51:42;99598.03;;;7.51;40.95
61109;BME280;46995;55.740;37.402;2023-03-20T11:54:22;99583.44;;;7.47;41.30
61109;BME280;46995;55.740;37.402;2023-03-20T11:56:57;99598.28;;;7.59;40.65
61109;BME280;46995;55.740;37.402;2023-03-20T11:59:34;99601.66;;;7.61;41.24
61109;BME280;46995;55.740;37.402;2023-03-20T12:02:21;99588.97;;;7.55;40.72
61109;BME280;46995;55.740;37.402;2023-03-20T12:05:26;99567.78;;;7.46;40.65
61109;BME280;46995;55.740;37.402;2023-03-20T12:08:00;99594.50;;;7.63;40.72
61109;BME280;46995;55.740;37.402;2023-03-20T12:10:31;99576.81;;;7.65;40.67
61109;BME280;46995;55.740;37.402;2023-03-20T12:13:03;99563.19;;;7.60;40.56
61109;BME280;46995;55.740;37.402;2023-03-20T12:15:39;99582.97;;;7.77;40.31
61109;BME280;46995;55.740;37.402;2023-03-20T12:18:25;99556.53;;;7.68;40.71
61109;BME280;46995;55.740;37.402;2023-03-20T12:23:44;99560.19;;;7.89;40.70
61109;BME280;46995;55.740;37.402;2023-03-20T12:26:44;99550.84;;;8.20;40.87
61109;BME280;46995;55.740;37.402;2023-03-20T12:34:39;99535.41;;;13.12;34.08
61109;BME280;46995;55.740;37.402;2023-03-20T12:37:10;99521.34;;;14.44;31.77
61109;BME280;46995;55.740;37.402;2023-03-20T12:39:57;99528.75;;;15.50;29.41
61109;BME280;46995;55.740;37.402;2023-03-20T12:45:30;99527.28;;;17.08;27.81
61109;BME280;46995;55.740;37.402;2023-03-20T12:53:48;99509.63;;;18.06;27.24
61109;BME280;46995;55.740;37.402;2023-03-20T12:59:11;99512.09;;;17.08;27.47
61109;BME280;46995;55.740;37.402;2023-03-20T13:01:49;99511.59;;;16.74;27.20
61109;BME280;46995;55.740;37.402;2023-03-20T13:07:21;99506.06;;;16.75;27.34
61109;BME280;46995;55.740;37.402;2023-03-20T13:21:56;99498.19;;;16.02;27.90
61109;BME280;46995;55.740;37.402;2023-03-20T13:24:33;99493.50;;;15.56;28.45
61109;BME280;46995;55.740;37.402;2023-03-20T13:27:06;99489.66;;;15.42;28.95
61109;BME280;46995;55.740;37.402;2023-03-20T13:30:03;99493.22;;;15.09;29.38
61109;BME280;46995;55.740;37.402;2023-03-20T13:32:56;99456.94;;;14.50;30.83
61109;BME280;46995;55.740;37.402;2023-03-20T13:35:42;99483.53;;;14.06;30.32
61109;BME280;46995;55.740;37.402;2023-03-20T13:38:17;99456.69;;;13.48;30.77
61109;BME280;46995;55.740;37.402;2023-03-20T13:40:46;99491.00;;;13.14;31.64
61109;BME280;46995;55.740;37.402;2023-03-20T13:43:24;99456.53;;;12.59;32.18
61109;BME280;46995;55.740;37.402;2023-03-20T13:46:03;99462.09;;;12.29;32.93
61109;BME280;46995;55.740;37.402;2023-03-20T13:48:41;99463.53;;;12.14;33.87
61109;BME280;46995;55.740;37.402;2023-03-20T13:51:20;99480.41;;;12.13;33.86
61109;BME280;46995;55.740;37.402;2023-03-20T13:54:14;99471.09;;;12.09;33.99
61109;BME280;46995;55.740;37.402;2023-03-20T13:56:58;99449.66;;;11.93;34.16
61109;BME280;46995;55.740;37.402;2023-03-20T14:04:26;99444.94;;;11.29;35.23
61109;BME280;46995;55.740;37.402;2023-03-20T14:06:58;99442.00;;;10.93;36.24
61109;BME280;46995;55.740;37.402;2023-03-20T14:09:35;99457.34;;;10.69;36.25
61109;BME280;46995;55.740;37.402;2023-03-20T14:12:03;99450.09;;;10.52;36.77
61109;BME280;46995;55.740;37.402;2023-03-20T14:14:32;99442.81;;;10.14;37.50
61109;BME280;46995;55.740;37.402;2023-03-20T14:17:24;99449.69;;;9.85;38.58
61109;BME280;46995;55.740;37.402;2023-03-20T14:19:52;99443.34;;;9.46;38.62
61109;BME280;46995;55.740;37.402;2023-03-20T14:22:27;99448.78;;;9.33;39.31
61109;BME280;46995;55.740;37.402;2023-03-20T14:25:17;99443.22;;;9.15;39.57
61109;BME280;46995;55.740;37.402;2023-03-20T14:27:59;99453.19;;;9.01;40.02
61109;BME280;46995;55.740;37.402;2023-03-20T14:36:40;99453.41;;;8.55;42.22
61109;BME280;46995;55.740;37.402;2023-03-20T14:38:57;99431.66;;;8.30;42.99
61109;BME280;46995;55.740;37.402;2023-03-20T14:41:39;99448.34;;;8.29;43.40
61109;BME280;46995;55.740;37.402;2023-03-20T14:44:37;99452.06;;;8.16;43.64
61109;BME280;46995;55.740;37.402;2023-03-20T14:50:29;99456.56;;;7.91;44.48
61109;BME280;46995;55.740;37.402;2023-03-20T14:53:22;99445.44;;;7.77;45.30
61109;BME280;46995;55.740;37.402;2023-03-20T14:56:07;99430.00;;;7.61;45.38
61109;BME280;46995;55.740;37.402;2023-03-20T14:59:00;99449.22;;;7.61;45.33
61109;BME280;46995;55.740;37.402;2023-03-20T15:01:44;99431.09;;;7.35;46.44
61109;BME280;46995;55.740;37.402;2023-03-20T15:06:58;99450.88;;;7.28;47.77
61109;BME280;46995;55.740;37.402;2023-03-20T15:09:26;99447.16;;;7.19;47.24
61109;BME280;46995;55.740;37.402;2023-03-20T15:11:56;99441.41;;;7.14;47.44
61109;BME280;46995;55.740;37.402;2023-03-20T15:17:23;99442.78;;;7.07;47.97
61109;BME280;46995;55.740;37.402;2023-03-20T15:20:00;99415.28;;;6.89;48.32
61109;BME280;46995;55.740;37.402;2023-03-20T15:22:28;99419.78;;;6.87;47.80
61109;BME280;46995;55.740;37.402;2023-03-20T15:24:55;99443.28;;;7.01;48.65
61109;BME280;46995;55.740;37.402;2023-03-20T15:27:25;99434.66;;;6.99;48.65
61109;BME280;46995;55.740;37.402;2023-03-20T15:30:03;99375.53;;;6.58;48.67